Terminal Aerodrome Forecast
Issued by NWS

Home | Current Version | Previous Version | Text Only | Print | Product List | Glossary On
Versions: 1 2 3 4 5 6 7 8 9 10 11 12 13 14 15 16 17 18 19 20 21 22 23 24 25 26
000
FTUS44 KTSA 031844 AAK
TAFXNA
TAF AMD
KXNA 031844Z 0319/0418 24013G18KT P6SM VCTS SCT035CB
     FM040000 18005KT P6SM SCT250 PROB30 0408/0412 4SM -TSRA
      BKN030CB
     FM041400 22009KT P6SM BKN250=

USA.gov is the U.S. government's official web portal to all federal, state and local government web resources and services.